Time;durP1;ratioP1;P1;durP2;ratioP2;P2;SDS_P1;SDS_P2;PMS_P1;PMS_P2;Temp;Humidity;BMP_temperature;BMP_pressure;BME280_temperature;BME280_humidity;BME280_pressure;Samples;Min_cycle;Max_cycle;Signal;HPM_P1;HPM_P2
2021/08/25 00:03:06;;;;;;;5.15;3.53;;;;;21.80;102571.00;;;;4412353;22;20220;-76
2021/08/25 00:05:34;;;;;;;4.10;3.70;;;;;21.90;102569.00;;;;5028718;28;20291;-77
2021/08/25 00:08:01;;;;;;;5.03;3.88;;;;;21.80;102565.00;;;;5030036;28;20206;-77
2021/08/25 00:10:28;;;;;;;5.35;3.65;;;;;21.80;102564.00;;;;5029343;28;20200;-76
2021/08/25 00:12:56;;;;;;;10.15;4.40;;;;;21.80;102563.00;;;;5028529;28;20210;-77
2021/08/25 00:15:23;;;;;;;4.28;3.25;;;;;21.80;102550.00;;;;5030528;28;20212;-76
2021/08/25 00:17:50;;;;;;;3.90;3.25;;;;;21.80;102561.00;;;;5030204;28;20642;-76
2021/08/25 00:20:19;;;;;;;4.85;4.35;;;;;21.70;102554.00;;;;5030199;28;20196;-76
2021/08/25 00:22:46;;;;;;;4.25;3.85;;;;;21.70;102554.00;;;;5030280;28;20208;-77
2021/08/25 00:25:13;;;;;;;5.25;3.80;;;;;21.70;102553.00;;;;5030626;28;20294;-76
2021/08/25 00:30:16;;;;;;;4.45;3.92;;;;;21.70;102553.00;;;;5115419;22;23225;-77
2021/08/25 00:32:44;;;;;;;5.22;3.65;;;;;21.70;102543.00;;;;4984532;28;20991;-77
2021/08/25 00:35:12;;;;;;;4.55;3.67;;;;;21.70;102538.00;;;;4990505;28;20202;-77
2021/08/25 00:37:41;;;;;;;4.63;3.80;;;;;21.60;102539.00;;;;4990443;28;20276;-77
2021/08/25 00:40:09;;;;;;;7.00;3.97;;;;;21.60;102535.00;;;;4989682;28;20670;-77
2021/08/25 00:42:36;;;;;;;5.03;4.20;;;;;21.60;102540.00;;;;4991342;28;20206;-77
2021/08/25 00:45:04;;;;;;;5.25;3.80;;;;;21.60;102537.00;;;;4990736;28;20210;-78
2021/08/25 00:47:33;;;;;;;4.47;3.97;;;;;21.60;102540.00;;;;4990460;28;20206;-77
2021/08/25 00:50:00;;;;;;;5.20;4.22;;;;;21.60;102531.00;;;;4990232;28;20217;-77
2021/08/25 00:52:27;;;;;;;4.90;4.20;;;;;21.60;102532.00;;;;4990427;28;20202;-77
2021/08/25 00:54:56;;;;;;;4.82;4.28;;;;;21.60;102529.00;;;;4990407;28;20201;-77
2021/08/25 00:57:23;;;;;;;4.97;4.47;;;;;21.60;102529.00;;;;4990377;28;20248;-77
2021/08/25 00:59:51;;;;;;;5.50;4.63;;;;;21.50;102531.00;;;;4990268;28;20190;-77
2021/08/25 01:02:27;;;;;;;5.70;3.63;;;;;21.50;102526.00;;;;4989612;28;20228;-77
2021/08/25 01:04:57;;;;;;;5.25;4.35;;;;;21.50;102533.00;;;;4989557;28;20296;-77
2021/08/25 01:07:28;;;;;;;6.63;4.38;;;;;21.50;102527.00;;;;4990759;28;20209;-77
2021/08/25 01:09:56;;;;;;;5.25;4.15;;;;;21.50;102522.00;;;;4990247;28;20206;-77
2021/08/25 01:12:25;;;;;;;5.55;3.72;;;;;21.50;102524.00;;;;4990518;28;20237;-76
2021/08/25 01:14:53;;;;;;;5.20;4.35;;;;;21.50;102526.00;;;;4990249;28;20209;-77
2021/08/25 01:17:22;;;;;;;5.07;4.53;;;;;21.40;102525.00;;;;4990630;28;20240;-77
2021/08/25 01:19:58;;;;;;;5.65;4.90;;;;;21.40;102528.00;;;;4990229;28;20201;-76
2021/08/25 01:22:25;;;;;;;5.90;4.32;;;;;21.40;102522.00;;;;4990326;28;20197;-77
2021/08/25 01:24:55;;;;;;;5.72;4.40;;;;;21.40;102511.00;;;;4989885;28;20473;-77
2021/08/25 01:27:26;;;;;;;5.15;4.22;;;;;21.40;102520.00;;;;4990311;28;20217;-76
2021/08/25 01:29:55;;;;;;;6.20;4.63;;;;;21.40;102510.00;;;;4990137;28;20265;-77
2021/08/25 01:32:23;;;;;;;5.63;5.00;;;;;21.40;102516.00;;;;4970522;28;20234;-77
2021/08/25 01:34:52;;;;;;;4.97;4.43;;;;;21.40;102512.00;;;;4978514;28;20217;-76
2021/08/25 01:37:20;;;;;;;4.38;3.90;;;;;21.40;102511.00;;;;4990122;28;20268;-77
2021/08/25 01:39:47;;;;;;;5.57;4.75;;;;;21.40;102508.00;;;;4990061;28;20208;-77
2021/08/25 01:42:15;;;;;;;7.38;5.03;;;;;21.30;102502.00;;;;4990348;28;20206;-77
2021/08/25 01:44:42;;;;;;;5.82;5.22;;;;;21.30;102506.00;;;;4989749;28;20609;-76
2021/08/25 01:47:11;;;;;;;5.82;4.50;;;;;21.30;102507.00;;;;4990137;28;20204;-77
2021/08/25 01:49:38;;;;;;;4.88;4.25;;;;;21.30;102503.00;;;;4989625;28;20682;-77
2021/08/25 01:52:07;;;;;;;8.35;5.55;;;;;21.30;102498.00;;;;4989735;28;20213;-75
2021/08/25 01:54:34;;;;;;;5.40;4.63;;;;;21.30;102500.00;;;;4990468;28;20197;-76
2021/08/25 01:57:01;;;;;;;6.38;4.90;;;;;21.30;102492.00;;;;4990022;28;20694;-76
2021/08/25 01:59:28;;;;;;;5.57;4.90;;;;;21.30;102493.00;;;;4989373;28;20217;-77
2021/08/25 02:01:56;;;;;;;8.10;4.80;;;;;21.20;102487.00;;;;4989551;28;20228;-76
2021/08/25 02:04:24;;;;;;;5.70;4.82;;;;;21.20;102485.00;;;;4990104;28;20213;-76
2021/08/25 02:06:53;;;;;;;5.45;4.93;;;;;21.20;102484.00;;;;4989769;28;20209;-76
2021/08/25 02:09:21;;;;;;;6.35;4.60;;;;;21.20;102481.00;;;;4989701;28;20212;-76
2021/08/25 02:11:48;;;;;;;5.65;4.88;;;;;21.20;102479.00;;;;4988771;28;20212;-76
2021/08/25 02:14:16;;;;;;;5.53;4.68;;;;;21.20;102475.00;;;;4989693;28;20204;-76
2021/08/25 02:16:43;;;;;;;5.65;4.70;;;;;21.10;102469.00;;;;4989516;28;20727;-77
2021/08/25 02:19:10;;;;;;;6.35;5.30;;;;;21.10;102468.00;;;;4989555;28;20213;-76
2021/08/25 02:21:39;;;;;;;5.28;4.28;;;;;21.10;102469.00;;;;4990008;28;20218;-76
2021/08/25 02:24:06;;;;;;;5.72;5.15;;;;;21.10;102465.00;;;;4989341;28;20209;-76
2021/08/25 02:26:33;;;;;;;5.90;4.88;;;;;21.10;102464.00;;;;4989399;28;20585;-76
2021/08/25 02:29:01;;;;;;;6.18;4.88;;;;;21.10;102468.00;;;;4989198;28;20206;-77
2021/08/25 02:31:28;;;;;;;5.75;4.80;;;;;21.10;102459.00;;;;4989488;28;20233;-77
2021/08/25 02:33:55;;;;;;;5.20;4.40;;;;;21.10;102461.00;;;;4990916;28;20205;-77
2021/08/25 02:36:22;;;;;;;7.53;5.65;;;;;21.10;102453.00;;;;4993289;28;20621;-77
2021/08/25 02:38:51;;;;;;;6.47;5.18;;;;;21.00;102446.00;;;;4993308;28;20201;-76
2021/08/25 02:41:20;;;;;;;6.55;4.97;;;;;21.00;102454.00;;;;4993809;28;20205;-76
2021/08/25 02:43:48;;;;;;;6.38;4.75;;;;;21.00;102455.00;;;;4992581;28;20201;-76
2021/08/25 02:46:15;;;;;;;7.47;4.90;;;;;21.00;102460.00;;;;4993585;28;20254;-77
2021/08/25 02:48:43;;;;;;;6.22;4.75;;;;;21.00;102458.00;;;;4993590;28;20209;-77
2021/08/25 02:51:11;;;;;;;6.80;5.03;;;;;21.00;102456.00;;;;4993057;28;20209;-77
2021/08/25 02:53:38;;;;;;;5.68;4.82;;;;;21.00;102456.00;;;;4992819;28;20280;-76
2021/08/25 02:56:07;;;;;;;8.10;4.75;;;;;21.00;102462.00;;;;4993724;28;20201;-76
2021/08/25 02:58:34;;;;;;;6.07;4.93;;;;;20.90;102455.00;;;;4993106;28;20229;-76
2021/08/25 03:01:01;;;;;;;7.20;6.13;;;;;20.90;102453.00;;;;4993092;28;20205;-77
2021/08/25 03:03:29;;;;;;;6.93;5.13;;;;;20.90;102450.00;;;;4993503;28;20201;-77
2021/08/25 03:05:56;;;;;;;6.30;5.70;;;;;20.90;102445.00;;;;4992527;28;20189;-76
2021/08/25 03:08:23;;;;;;;8.02;5.57;;;;;20.90;102448.00;;;;4993225;28;20213;-77
2021/08/25 03:10:50;;;;;;;8.05;5.80;;;;;20.80;102440.00;;;;4992620;28;20221;-76
2021/08/25 03:13:19;;;;;;;6.25;5.13;;;;;20.80;102434.00;;;;4982022;28;20581;-76
2021/08/25 03:15:47;;;;;;;6.10;5.28;;;;;20.80;102429.00;;;;4992329;28;20209;-76
2021/08/25 03:18:14;;;;;;;5.60;4.78;;;;;20.80;102432.00;;;;4992192;28;20233;-77
2021/08/25 03:20:42;;;;;;;5.65;5.03;;;;;20.80;102429.00;;;;4992896;28;20213;-76
2021/08/25 03:23:09;;;;;;;6.35;5.72;;;;;20.70;102429.00;;;;4993132;28;20205;-76
2021/08/25 03:25:36;;;;;;;8.18;5.55;;;;;20.70;102423.00;;;;4992252;28;20205;-77
2021/08/25 03:28:04;;;;;;;7.00;5.70;;;;;20.70;102420.00;;;;4992603;28;20208;-77
2021/08/25 03:30:33;;;;;;;6.30;5.68;;;;;20.70;102422.00;;;;4992457;28;20244;-76
2021/08/25 03:33:05;;;;;;;5.55;4.95;;;;;20.70;102424.00;;;;4992063;28;20216;-76
2021/08/25 03:35:33;;;;;;;5.68;4.97;;;;;20.70;102415.00;;;;4992568;28;20209;-77
2021/08/25 03:38:00;;;;;;;5.72;4.82;;;;;20.70;102421.00;;;;4991660;28;20703;-77
2021/08/25 03:40:27;;;;;;;7.13;5.28;;;;;20.70;102426.00;;;;4992656;28;20205;-76
2021/08/25 03:42:55;;;;;;;6.72;4.78;;;;;20.60;102419.00;;;;4992251;28;20201;-76
2021/08/25 03:45:22;;;;;;;5.65;4.78;;;;;20.60;102407.00;;;;4991822;28;20202;-77
2021/08/25 03:47:51;;;;;;;8.77;5.45;;;;;20.60;102411.00;;;;4992185;28;20202;-76
2021/08/25 03:50:18;;;;;;;7.30;5.80;;;;;20.60;102406.00;;;;4992027;28;20213;-77
2021/08/25 03:52:45;;;;;;;7.68;5.78;;;;;20.60;102406.00;;;;4991601;28;20213;-77
2021/08/25 03:55:12;;;;;;;5.93;5.30;;;;;20.60;102400.00;;;;4992069;28;20209;-76
2021/08/25 03:57:40;;;;;;;6.75;5.38;;;;;20.60;102397.00;;;;4991862;28;20236;-76
2021/08/25 04:00:08;;;;;;;5.80;5.13;;;;;20.50;102399.00;;;;4991924;28;20197;-76
2021/08/25 04:02:35;;;;;;;6.90;5.32;;;;;20.50;102395.00;;;;4991728;28;20209;-76
2021/08/25 04:05:04;;;;;;;6.03;5.13;;;;;20.50;102392.00;;;;4991839;28;20204;-76
2021/08/25 04:07:31;;;;;;;6.30;4.80;;;;;20.50;102395.00;;;;4992217;28;20710;-76
2021/08/25 04:09:58;;;;;;;7.07;4.38;;;;;20.50;102394.00;;;;4991492;28;20213;-76
2021/08/25 04:12:26;;;;;;;6.43;5.13;;;;;20.50;102385.00;;;;4991401;28;20209;-76
2021/08/25 04:14:53;;;;;;;5.72;4.82;;;;;20.50;102385.00;;;;4991819;28;20225;-76
2021/08/25 04:17:20;;;;;;;6.20;4.72;;;;;20.40;102376.00;;;;4991898;28;20229;-76
2021/08/25 04:19:47;;;;;;;6.05;4.63;;;;;20.40;102383.00;;;;4991876;28;20201;-77
2021/08/25 04:22:16;;;;;;;5.07;4.45;;;;;20.40;102374.00;;;;4991291;28;20201;-76
2021/08/25 04:24:43;;;;;;;7.90;4.75;;;;;20.40;102378.00;;;;4990723;28;20216;-76
2021/08/25 04:27:10;;;;;;;6.10;4.72;;;;;20.40;102393.00;;;;4991066;28;20209;-76
2021/08/25 04:29:38;;;;;;;5.25;4.15;;;;;20.40;102382.00;;;;4990863;28;20249;-76
2021/08/25 04:32:06;;;;;;;7.60;4.90;;;;;20.40;102383.00;;;;4990933;28;20237;-78
2021/08/25 04:34:33;;;;;;;6.60;4.97;;;;;20.40;102385.00;;;;4991105;28;20206;-78
2021/08/25 04:37:00;;;;;;;5.57;4.70;;;;;20.30;102385.00;;;;4990138;28;20206;-77
2021/08/25 04:39:30;;;;;;;4.97;4.47;;;;;20.30;102388.00;;;;4991175;28;20201;-78
2021/08/25 04:41:57;;;;;;;5.85;4.38;;;;;20.30;102386.00;;;;4990441;28;20675;-77
2021/08/25 04:44:24;;;;;;;5.35;4.70;;;;;20.30;102377.00;;;;4990602;28;20206;-78
2021/08/25 04:46:52;;;;;;;5.97;5.13;;;;;20.20;102386.00;;;;4989811;28;20201;-78
2021/08/25 04:49:19;;;;;;;6.40;4.95;;;;;20.20;102377.00;;;;4990467;28;20201;-78
2021/08/25 04:51:46;;;;;;;5.85;4.80;;;;;20.20;102381.00;;;;4990429;28;20205;-78
2021/08/25 04:54:13;;;;;;;5.68;4.85;;;;;20.20;102377.00;;;;4990326;28;20675;-78
2021/08/25 04:56:42;;;;;;;7.22;4.72;;;;;20.20;102384.00;;;;4989547;28;20210;-77
2021/08/25 04:59:09;;;;;;;8.90;5.10;;;;;20.20;102381.00;;;;4990114;28;20546;-78
2021/08/25 05:01:36;;;;;;;6.70;4.65;;;;;20.20;102375.00;;;;4990389;28;20236;-77
2021/08/25 05:04:04;;;;;;;5.65;4.55;;;;;20.20;102368.00;;;;4990056;28;20205;-78
2021/08/25 05:06:31;;;;;;;5.32;4.32;;;;;20.20;102373.00;;;;4990546;28;20206;-78
2021/08/25 05:08:59;;;;;;;5.90;4.90;;;;;20.20;102378.00;;;;4990230;28;20206;-78
2021/08/25 05:11:26;;;;;;;7.80;5.40;;;;;20.20;102377.00;;;;4989420;28;20198;-77
2021/08/25 05:13:55;;;;;;;6.30;4.85;;;;;20.20;102387.00;;;;4990290;28;20574;-77
2021/08/25 05:16:22;;;;;;;5.95;4.70;;;;;20.20;102369.00;;;;4989879;28;20201;-78
2021/08/25 05:18:49;;;;;;;4.03;3.58;;;;;20.20;102375.00;;;;4989785;28;20225;-78
2021/08/25 05:21:16;;;;;;;5.85;4.35;;;;;20.20;102369.00;;;;4990014;28;21266;-77
2021/08/25 05:23:43;;;;;;;5.05;4.10;;;;;20.20;102382.00;;;;4989252;28;20201;-78
2021/08/25 05:26:11;;;;;;;4.20;3.80;;;;;20.10;102373.00;;;;4989441;28;20202;-78
2021/08/25 05:28:38;;;;;;;4.90;3.88;;;;;20.10;102369.00;;;;4989940;28;20204;-75
2021/08/25 05:31:06;;;;;;;5.65;5.03;;;;;20.10;102365.00;;;;4989269;28;20245;-76
2021/08/25 05:33:34;;;;;;;5.57;3.83;;;;;20.10;102364.00;;;;4989667;28;20209;-75
2021/08/25 05:36:01;;;;;;;4.78;4.28;;;;;20.10;102365.00;;;;4989213;28;20209;-76
2021/08/25 05:38:29;;;;;;;6.10;4.18;;;;;20.10;102363.00;;;;4989983;28;20695;-76
2021/08/25 05:40:56;;;;;;;5.47;4.05;;;;;20.20;102367.00;;;;4990301;28;20205;-76
2021/08/25 05:43:24;;;;;;;5.55;4.35;;;;;20.20;102367.00;;;;4990197;28;20201;-76
2021/08/25 05:45:51;;;;;;;7.07;4.05;;;;;20.20;102368.00;;;;4989539;28;20205;-77
2021/08/25 05:48:20;;;;;;;5.10;4.45;;;;;20.20;102371.00;;;;4990538;28;20208;-77
2021/08/25 05:50:47;;;;;;;4.68;3.80;;;;;20.20;102378.00;;;;4989590;28;20216;-77
2021/08/25 05:53:14;;;;;;;5.15;4.07;;;;;20.30;102376.00;;;;4989276;28;20209;-77
2021/08/25 05:55:42;;;;;;;5.88;4.43;;;;;20.30;102371.00;;;;4989250;28;20206;-75
2021/08/25 05:58:09;;;;;;;5.15;3.95;;;;;20.30;102382.00;;;;4989299;28;20591;-75
2021/08/25 06:00:36;;;;;;;5.32;4.22;;;;;20.40;102388.00;;;;4989041;28;20205;-75
2021/08/25 06:03:03;;;;;;;5.82;4.15;;;;;20.40;102382.00;;;;4988971;28;20693;-75
2021/08/25 06:05:32;;;;;;;7.30;3.95;;;;;20.40;102376.00;;;;4989366;28;20626;-76
2021/08/25 06:07:59;;;;;;;5.47;3.97;;;;;20.50;102385.00;;;;4988698;28;20563;-76
2021/08/25 06:10:26;;;;;;;5.93;3.65;;;;;20.60;102388.00;;;;4989299;28;20209;-76
2021/08/25 06:12:54;;;;;;;6.05;4.22;;;;;20.60;102383.00;;;;4977848;28;20213;-75
2021/08/25 06:15:21;;;;;;;6.20;4.63;;;;;20.70;102377.00;;;;4988928;28;20217;-75
2021/08/25 06:17:48;;;;;;;5.55;4.50;;;;;20.70;102381.00;;;;4989129;28;20202;-75
2021/08/25 06:20:16;;;;;;;8.15;4.55;;;;;20.80;102378.00;;;;4989571;28;20198;-76
2021/08/25 06:22:44;;;;;;;7.00;4.32;;;;;20.90;102381.00;;;;4989047;28;20216;-77
2021/08/25 06:25:12;;;;;;;5.55;4.18;;;;;20.90;102382.00;;;;4989589;28;20212;-75
2021/08/25 06:27:39;;;;;;;5.00;4.32;;;;;21.00;102385.00;;;;4989695;28;20217;-76
2021/08/25 06:30:08;;;;;;;5.20;4.70;;;;;21.10;102387.00;;;;4988726;28;20232;-77
2021/08/25 06:32:35;;;;;;;8.35;5.20;;;;;21.10;102388.00;;;;4989410;28;20233;-76
2021/08/25 06:35:03;;;;;;;5.47;4.57;;;;;21.10;102391.00;;;;4989215;28;20201;-76
2021/08/25 06:37:30;;;;;;;4.93;4.13;;;;;21.20;102394.00;;;;4989123;28;20216;-77
2021/08/25 06:39:59;;;;;;;5.65;3.92;;;;;21.20;102400.00;;;;4988413;28;20233;-76
2021/08/25 06:42:26;;;;;;;5.30;4.00;;;;;21.20;102398.00;;;;4989264;28;20231;-76
2021/08/25 06:44:53;;;;;;;5.50;3.75;;;;;21.30;102402.00;;;;4988325;28;20221;-76
2021/08/25 06:47:21;;;;;;;7.00;4.50;;;;;21.40;102399.00;;;;4988965;28;20212;-76
2021/08/25 06:49:48;;;;;;;6.47;4.88;;;;;21.40;102405.00;;;;4988386;28;20214;-76
2021/08/25 06:52:15;;;;;;;5.82;4.28;;;;;21.50;102398.00;;;;4989112;28;20205;-76
2021/08/25 06:54:42;;;;;;;7.38;4.38;;;;;21.60;102401.00;;;;4988316;28;20210;-77
2021/08/25 06:57:11;;;;;;;5.50;4.10;;;;;21.60;102394.00;;;;4988105;28;20210;-76
2021/08/25 06:59:38;;;;;;;4.22;3.83;;;;;21.70;102392.00;;;;4988635;28;20237;-77
2021/08/25 07:02:05;;;;;;;4.05;3.65;;;;;21.80;102394.00;;;;4988336;28;20208;-76
2021/08/25 07:04:33;;;;;;;5.07;3.75;;;;;21.80;102393.00;;;;4988693;28;20225;-76
2021/08/25 07:07:00;;;;;;;5.10;4.07;;;;;21.90;102394.00;;;;4987609;28;20687;-76
2021/08/25 07:09:27;;;;;;;4.82;4.32;;;;;21.90;102400.00;;;;4988257;28;20232;-76
2021/08/25 07:11:54;;;;;;;4.32;3.65;;;;;22.00;102394.00;;;;4987859;28;20206;-76
2021/08/25 07:14:23;;;;;;;5.53;3.70;;;;;22.10;102392.00;;;;4988170;28;20218;-76
2021/08/25 07:16:50;;;;;;;4.07;3.40;;;;;22.10;102395.00;;;;4987494;28;20201;-76
2021/08/25 07:19:17;;;;;;;4.10;3.60;;;;;22.20;102394.00;;;;4988769;28;20260;-76
2021/08/25 07:21:44;;;;;;;4.20;3.58;;;;;22.30;102390.00;;;;4991245;28;20205;-76
2021/08/25 07:24:12;;;;;;;4.63;3.72;;;;;22.40;102391.00;;;;4992144;28;20619;-77
2021/08/25 07:26:39;;;;;;;5.85;3.30;;;;;22.40;102390.00;;;;4991557;28;20214;-76
2021/08/25 07:29:06;;;;;;;4.78;3.58;;;;;22.50;102384.00;;;;4991308;28;20769;-76
2021/08/25 07:31:35;;;;;;;5.13;3.95;;;;;22.60;102375.00;;;;4990832;28;20245;-77
2021/08/25 07:34:04;;;;;;;4.15;3.22;;;;;22.70;102381.00;;;;4991130;28;20205;-76
2021/08/25 07:36:31;;;;;;;4.00;2.83;;;;;22.80;102373.00;;;;4991827;28;20232;-76
2021/08/25 07:38:58;;;;;;;9.05;3.05;;;;;22.90;102378.00;;;;4991751;28;20240;-76
2021/08/25 07:41:25;;;;;;;4.05;2.70;;;;;22.90;102376.00;;;;4992267;28;20209;-77
2021/08/25 07:43:52;;;;;;;4.40;3.00;;;;;23.00;102374.00;;;;4992402;28;20209;-77
2021/08/25 07:46:20;;;;;;;3.13;2.80;;;;;23.10;102367.00;;;;4992573;28;20454;-76
2021/08/25 07:48:48;;;;;;;4.43;3.00;;;;;23.20;102372.00;;;;4991764;28;20615;-77
2021/08/25 07:51:15;;;;;;;2.92;2.58;;;;;23.30;102383.00;;;;4992342;28;20205;-76
2021/08/25 07:53:43;;;;;;;5.35;2.42;;;;;23.40;102381.00;;;;4992068;28;20209;-77
2021/08/25 07:56:10;;;;;;;5.45;3.05;;;;;23.50;102372.00;;;;4991640;28;20209;-77
2021/08/25 07:58:37;;;;;;;3.75;2.97;;;;;23.60;102369.00;;;;4992429;28;20222;-77
2021/08/25 08:01:04;;;;;;;3.10;2.50;;;;;23.70;102370.00;;;;4991885;28;20221;-77
2021/08/25 08:03:31;;;;;;;6.95;3.17;;;;;23.80;102371.00;;;;4992114;28;20204;-77
2021/08/25 08:06:00;;;;;;;4.30;3.05;;;;;23.90;102369.00;;;;4991425;28;20217;-76
2021/08/25 08:08:27;;;;;;;3.00;2.65;;;;;24.00;102360.00;;;;4992381;28;20205;-77
2021/08/25 08:10:54;;;;;;;3.15;2.55;;;;;24.00;102371.00;;;;4991636;28;20198;-77
2021/08/25 08:13:22;;;;;;;2.95;2.33;;;;;24.10;102359.00;;;;4991717;28;20213;-77
2021/08/25 08:15:49;;;;;;;3.15;2.47;;;;;24.20;102369.00;;;;4991707;28;20671;-78
2021/08/25 08:18:20;;;;;;;3.42;2.70;;;;;24.30;102369.00;;;;4991715;28;20198;-77
2021/08/25 08:20:48;;;;;;;2.72;2.28;;;;;24.30;102366.00;;;;4991691;28;20623;-77
2021/08/25 08:23:17;;;;;;;3.40;2.33;;;;;24.40;102366.00;;;;4991263;28;20233;-77
2021/08/25 08:25:46;;;;;;;5.13;2.50;;;;;24.50;102371.00;;;;4991269;28;20268;-77
2021/08/25 08:28:13;;;;;;;3.17;2.63;;;;;24.60;102361.00;;;;4991460;28;20671;-77
2021/08/25 08:30:40;;;;;;;3.10;2.50;;;;;24.70;102369.00;;;;4990577;28;20230;-75
2021/08/25 08:33:07;;;;;;;3.65;2.75;;;;;24.80;102360.00;;;;4991275;28;20202;-76
2021/08/25 08:35:36;;;;;;;2.88;2.28;;;;;24.90;102363.00;;;;4991885;28;20221;-76
2021/08/25 08:38:03;;;;;;;3.30;2.42;;;;;25.00;102357.00;;;;4991221;28;20210;-77
2021/08/25 08:40:32;;;;;;;4.22;2.92;;;;;25.10;102363.00;;;;4991109;28;20233;-77
2021/08/25 08:43:06;;;;;;;3.20;2.80;;;;;25.20;102363.00;;;;4991373;28;20209;-78
2021/08/25 08:45:43;;;;;;;5.78;3.42;;;;;25.30;102364.00;;;;4991131;28;20205;-77
2021/08/25 08:48:12;;;;;;;3.15;2.83;;;;;25.40;102352.00;;;;4990431;28;20210;-78
2021/08/25 08:50:41;;;;;;;3.85;2.65;;;;;25.50;102351.00;;;;4991205;28;20673;-77
2021/08/25 08:53:11;;;;;;;4.35;3.10;;;;;25.50;102350.00;;;;4990787;28;20602;-77
2021/08/25 08:55:40;;;;;;;3.85;2.65;;;;;25.60;102347.00;;;;4991158;28;20205;-76
2021/08/25 08:58:08;;;;;;;3.40;2.90;;;;;25.70;102341.00;;;;4990485;28;20205;-77
2021/08/25 09:00:35;;;;;;;3.33;2.67;;;;;25.80;102348.00;;;;4990416;28;20238;-77
2021/08/25 09:03:06;;;;;;;4.43;3.10;;;;;25.90;102333.00;;;;4990424;28;20213;-77
2021/08/25 09:05:34;;;;;;;5.53;3.70;;;;;26.00;102339.00;;;;4990981;28;20389;-77
2021/08/25 09:08:04;;;;;;;3.78;2.67;;;;;26.10;102336.00;;;;4990294;28;20208;-77
2021/08/25 09:10:33;;;;;;;3.25;2.50;;;;;26.20;102334.00;;;;4991144;28;20205;-77
2021/08/25 09:13:03;;;;;;;4.13;2.90;;;;;26.30;102336.00;;;;4977118;28;20582;-78
2021/08/25 09:15:32;;;;;;;4.95;2.85;;;;;26.40;102334.00;;;;4971055;28;20576;-77
2021/08/25 09:18:02;;;;;;;4.22;2.80;;;;;26.50;102330.00;;;;4971062;28;20213;-77
2021/08/25 09:20:31;;;;;;;2.97;2.28;;;;;26.60;102327.00;;;;4971549;28;20317;-76
2021/08/25 09:23:13;;;;;;;3.85;2.65;;;;;26.60;102323.00;;;;4970524;28;20221;-76
2021/08/25 09:25:41;;;;;;;4.28;2.78;;;;;26.80;102319.00;;;;4971139;28;20212;-78
2021/08/25 09:28:14;;;;;;;4.18;2.33;;;;;26.90;102324.00;;;;4971405;28;20217;-77
2021/08/25 09:30:51;;;;;;;3.42;2.38;;;;;26.90;102325.00;;;;4977425;28;20642;-77
2021/08/25 09:33:20;;;;;;;5.85;2.85;;;;;27.10;102322.00;;;;4990363;28;20561;-77
2021/08/25 09:35:47;;;;;;;8.43;3.33;;;;;27.20;102333.00;;;;4989826;28;20216;-77
2021/08/25 09:38:19;;;;;;;4.13;2.50;;;;;27.20;102330.00;;;;4989934;28;20209;-77
2021/08/25 09:40:47;;;;;;;3.08;2.60;;;;;27.30;102336.00;;;;4990048;28;20221;-77
2021/08/25 09:43:29;;;;;;;3.20;2.75;;;;;27.30;102329.00;;;;4989644;28;20209;-77
2021/08/25 09:46:14;;;;;;;4.85;3.20;;;;;27.40;102327.00;;;;4989511;28;20295;-77
2021/08/25 09:48:44;;;;;;;4.68;2.72;;;;;27.60;102331.00;;;;4990179;28;20260;-77
2021/08/25 09:51:13;;;;;;;4.28;2.83;;;;;27.60;102332.00;;;;4990117;28;20295;-78
2021/08/25 09:53:41;;;;;;;5.03;3.00;;;;;27.70;102331.00;;;;4989168;28;20206;-77
2021/08/25 09:56:25;;;;;;;3.63;2.92;;;;;27.70;102327.00;;;;4990195;28;20659;-79
2021/08/25 09:58:55;;;;;;;4.47;3.20;;;;;27.90;102325.00;;;;4989300;28;20217;-79
2021/08/25 10:01:23;;;;;;;4.75;2.83;;;;;28.00;102327.00;;;;4989777;28;20296;-78
2021/08/25 10:03:50;;;;;;;3.20;2.20;;;;;28.00;102323.00;;;;4989743;28;20194;-78
2021/08/25 10:06:19;;;;;;;3.65;2.90;;;;;28.10;102324.00;;;;4989787;28;20225;-77
2021/08/25 10:08:47;;;;;;;3.05;2.50;;;;;28.20;102315.00;;;;4989368;28;20209;-77
2021/08/25 10:11:17;;;;;;;3.45;2.70;;;;;28.20;102324.00;;;;4989465;28;20664;-78
2021/08/25 10:13:45;;;;;;;5.10;3.13;;;;;28.30;102320.00;;;;4989699;28;20293;-78
2021/08/25 10:16:28;;;;;;;4.43;2.58;;;;;28.40;102311.00;;;;4989182;28;20201;-78
2021/08/25 10:19:40;;;;;;;4.72;3.42;;;;;28.40;102309.00;;;;4988980;28;20206;-78
2021/08/25 10:22:26;;;;;;;5.40;2.78;;;;;28.50;102306.00;;;;4988922;28;20213;-77
2021/08/25 10:25:05;;;;;;;2.83;2.55;;;;;28.60;102312.00;;;;4988941;28;20311;-78
2021/08/25 10:27:36;;;;;;;2.50;1.90;;;;;28.70;102297.00;;;;4989327;28;20201;-78
2021/08/25 10:30:17;;;;;;;3.95;2.38;;;;;28.80;102296.00;;;;4988605;28;20233;-78
2021/08/25 10:33:14;;;;;;;5.75;3.17;;;;;28.70;102292.00;;;;4988135;28;20764;-78
2021/08/25 10:35:43;;;;;;;3.78;2.33;;;;;28.90;102274.00;;;;4988618;28;20229;-77
2021/08/25 10:38:26;;;;;;;3.22;2.53;;;;;29.00;102283.00;;;;4988433;28;20205;-78
2021/08/25 10:41:00;;;;;;;5.70;2.97;;;;;29.10;102273.00;;;;4988406;28;20232;-78
2021/08/25 10:43:38;;;;;;;3.67;2.42;;;;;29.10;102266.00;;;;4988801;28;20309;-78
2021/08/25 10:46:07;;;;;;;3.92;3.17;;;;;29.10;102253.00;;;;4988045;28;20632;-77
2021/08/25 10:48:42;;;;;;;2.63;2.42;;;;;29.00;102256.00;;;;4989685;28;20260;-78
2021/08/25 10:51:36;;;;;;;3.25;2.88;;;;;28.90;102251.00;;;;4989679;28;20201;-77
2021/08/25 10:54:09;;;;;;;4.05;2.67;;;;;29.00;102255.00;;;;4989054;28;20638;-78
2021/08/25 10:56:42;;;;;;;3.58;2.60;;;;;29.00;102246.00;;;;4992591;28;20212;-77
2021/08/25 10:59:11;;;;;;;3.63;2.78;;;;;29.10;102256.00;;;;4992759;28;20209;-78
2021/08/25 11:01:40;;;;;;;6.10;3.05;;;;;29.10;102252.00;;;;4992946;28;20206;-78
2021/08/25 11:04:13;;;;;;;3.08;2.28;;;;;29.20;102247.00;;;;4992680;28;20668;-77
2021/08/25 11:06:44;;;;;;;3.58;2.22;;;;;29.30;102244.00;;;;4992986;28;20280;-78
2021/08/25 11:09:27;;;;;;;2.70;2.10;;;;;29.20;102246.00;;;;4993216;28;20212;-78
2021/08/25 11:11:58;;;;;;;3.78;2.40;;;;;29.30;102243.00;;;;4990908;28;20205;-77
2021/08/25 11:14:31;;;;;;;2.40;1.80;;;;;29.30;102238.00;;;;4973803;28;20210;-77
2021/08/25 11:17:04;;;;;;;4.60;2.42;;;;;29.20;102236.00;;;;4972635;28;20210;-77
2021/08/25 11:19:36;;;;;;;2.88;2.08;;;;;29.20;102238.00;;;;4973703;28;20317;-78
2021/08/25 11:22:04;;;;;;;3.03;2.38;;;;;29.20;102226.00;;;;4973060;28;20203;-77
2021/08/25 11:24:34;;;;;;;2.38;1.80;;;;;29.10;102225.00;;;;4973611;28;20214;-77
2021/08/25 11:27:02;;;;;;;3.17;2.30;;;;;29.00;102233.00;;;;4973170;28;20203;-78
2021/08/25 11:29:29;;;;;;;1.88;1.52;;;;;29.00;102218.00;;;;4978013;28;20578;-77
2021/08/25 11:32:02;;;;;;;4.05;2.05;;;;;29.00;102219.00;;;;4992792;28;20595;-77
2021/08/25 11:34:29;;;;;;;1.67;1.20;;;;;29.00;102210.00;;;;4992754;28;20202;-77
2021/08/25 11:37:02;;;;;;;6.43;1.70;;;;;29.00;102202.00;;;;4992365;28;20223;-77
2021/08/25 11:39:30;;;;;;;2.97;1.90;;;;;29.10;102201.00;;;;4992502;28;20202;-77
2021/08/25 11:41:58;;;;;;;2.05;1.55;;;;;29.10;102198.00;;;;4992440;28;20584;-77
2021/08/25 11:44:52;;;;;;;3.10;1.95;;;;;28.90;102199.00;;;;4991934;28;20697;-77
2021/08/25 11:47:20;;;;;;;1.95;1.55;;;;;28.90;102205.00;;;;4957472;28;20209;-78
2021/08/25 11:49:51;;;;;;;1.83;1.33;;;;;28.80;102195.00;;;;4992366;28;20205;-77
2021/08/25 11:52:31;;;;;;;2.42;1.40;;;;;28.80;102188.00;;;;4992125;28;20206;-77
2021/08/25 11:55:00;;;;;;;2.70;1.60;;;;;28.70;102183.00;;;;4992145;28;20206;-77
2021/08/25 11:57:41;;;;;;;2.60;1.35;;;;;28.60;102176.00;;;;4991965;28;20241;-77
2021/08/25 12:00:10;;;;;;;3.10;1.50;;;;;28.70;102182.00;;;;4992788;28;20319;-77
2021/08/25 12:02:54;;;;;;;5.32;2.00;;;;;28.60;102178.00;;;;4991802;28;20307;-77
2021/08/25 12:05:23;;;;;;;2.10;1.25;;;;;28.70;102181.00;;;;4990025;28;20206;-78
2021/08/25 12:08:10;;;;;;;3.38;1.27;;;;;28.50;102183.00;;;;4991393;28;20217;-78
2021/08/25 12:10:39;;;;;;;2.75;1.67;;;;;28.60;102171.00;;;;4991977;28;20213;-77
2021/08/25 12:13:06;;;;;;;1.90;1.42;;;;;28.50;102173.00;;;;4982875;28;20222;-77
2021/08/25 12:15:48;;;;;;;2.25;1.42;;;;;28.40;102158.00;;;;4990096;28;20197;-77
2021/08/25 12:18:16;;;;;;;1.55;1.38;;;;;28.50;102151.00;;;;4991147;28;20209;-77
2021/08/25 12:20:45;;;;;;;2.40;1.10;;;;;28.50;102150.00;;;;4991191;28;20236;-77
2021/08/25 12:23:15;;;;;;;2.38;1.13;;;;;28.50;102150.00;;;;4991888;28;20279;-77